sensor_id;sensor_type;location;lat;lon;timestamp;P1;durP1;ratioP1;P2;durP2;ratioP2
9783;SDS011;4931;44.874;-1.092;2022-09-17T00:00:31;4.53;;;1.35;;
9783;SDS011;4931;44.874;-1.092;2022-09-17T00:05:16;3.58;;;1.10;;
9783;SDS011;4931;44.874;-1.092;2022-09-17T00:10:02;4.45;;;1.10;;
9783;SDS011;4931;44.874;-1.092;2022-09-17T00:14:50;3.83;;;0.93;;
9783;SDS011;4931;44.874;-1.092;2022-09-17T00:19:35;3.65;;;1.27;;
9783;SDS011;4931;44.874;-1.092;2022-09-17T00:24:20;5.93;;;1.35;;
9783;SDS011;4931;44.874;-1.092;2022-09-17T00:29:06;4.60;;;1.23;;
9783;SDS011;4931;44.874;-1.092;2022-09-17T00:33:53;5.00;;;1.02;;
9783;SDS011;4931;44.874;-1.092;2022-09-17T00:38:39;2.22;;;1.05;;
9783;SDS011;4931;44.874;-1.092;2022-09-17T00:43:38;5.45;;;1.10;;
9783;SDS011;4931;44.874;-1.092;2022-09-17T00:48:25;5.38;;;1.10;;
9783;SDS011;4931;44.874;-1.092;2022-09-17T00:53:14;3.70;;;1.38;;
9783;SDS011;4931;44.874;-1.092;2022-09-17T00:58:03;6.53;;;1.00;;
9783;SDS011;4931;44.874;-1.092;2022-09-17T01:02:51;2.85;;;1.00;;
9783;SDS011;4931;44.874;-1.092;2022-09-17T01:07:55;6.40;;;1.30;;
9783;SDS011;4931;44.874;-1.092;2022-09-17T01:12:53;2.00;;;1.00;;
9783;SDS011;4931;44.874;-1.092;2022-09-17T01:17:49;4.63;;;1.10;;
9783;SDS011;4931;44.874;-1.092;2022-09-17T01:22:50;4.80;;;1.25;;
9783;SDS011;4931;44.874;-1.092;2022-09-17T01:33:11;5.22;;;1.15;;
9783;SDS011;4931;44.874;-1.092;2022-09-17T01:38:01;5.63;;;1.23;;
9783;SDS011;4931;44.874;-1.092;2022-09-17T01:42:56;6.13;;;1.20;;
9783;SDS011;4931;44.874;-1.092;2022-09-17T01:47:48;6.55;;;1.02;;
9783;SDS011;4931;44.874;-1.092;2022-09-17T01:52:41;4.55;;;1.10;;
9783;SDS011;4931;44.874;-1.092;2022-09-17T01:57:30;7.15;;;1.00;;
9783;SDS011;4931;44.874;-1.092;2022-09-17T02:02:20;8.93;;;1.35;;
9783;SDS011;4931;44.874;-1.092;2022-09-17T02:07:13;4.38;;;1.05;;
9783;SDS011;4931;44.874;-1.092;2022-09-17T02:12:08;4.40;;;1.15;;
9783;SDS011;4931;44.874;-1.092;2022-09-17T02:16:59;4.82;;;1.08;;
9783;SDS011;4931;44.874;-1.092;2022-09-17T02:21:52;5.28;;;1.38;;
9783;SDS011;4931;44.874;-1.092;2022-09-17T02:26:45;3.80;;;1.30;;
9783;SDS011;4931;44.874;-1.092;2022-09-17T02:31:37;5.78;;;1.20;;
9783;SDS011;4931;44.874;-1.092;2022-09-17T02:36:23;6.20;;;1.20;;
9783;SDS011;4931;44.874;-1.092;2022-09-17T02:41:12;3.55;;;1.00;;
9783;SDS011;4931;44.874;-1.092;2022-09-17T02:46:03;4.38;;;1.00;;
9783;SDS011;4931;44.874;-1.092;2022-09-17T02:51:12;5.82;;;1.45;;
9783;SDS011;4931;44.874;-1.092;2022-09-17T03:00:58;2.08;;;1.00;;
9783;SDS011;4931;44.874;-1.092;2022-09-17T03:05:48;3.20;;;1.08;;
9783;SDS011;4931;44.874;-1.092;2022-09-17T03:10:36;5.70;;;1.65;;
9783;SDS011;4931;44.874;-1.092;2022-09-17T03:15:22;3.17;;;1.10;;
9783;SDS011;4931;44.874;-1.092;2022-09-17T03:20:07;5.13;;;1.30;;
9783;SDS011;4931;44.874;-1.092;2022-09-17T03:24:53;4.47;;;1.17;;
9783;SDS011;4931;44.874;-1.092;2022-09-17T03:29:41;5.13;;;1.20;;
9783;SDS011;4931;44.874;-1.092;2022-09-17T03:34:26;5.32;;;1.35;;
9783;SDS011;4931;44.874;-1.092;2022-09-17T03:39:11;5.07;;;1.23;;
9783;SDS011;4931;44.874;-1.092;2022-09-17T03:43:57;6.65;;;1.10;;
9783;SDS011;4931;44.874;-1.092;2022-09-17T03:48:45;4.18;;;1.25;;
9783;SDS011;4931;44.874;-1.092;2022-09-17T03:53:30;3.78;;;1.00;;
9783;SDS011;4931;44.874;-1.092;2022-09-17T03:58:15;2.95;;;1.25;;
9783;SDS011;4931;44.874;-1.092;2022-09-17T04:03:01;4.00;;;1.00;;
9783;SDS011;4931;44.874;-1.092;2022-09-17T04:07:49;3.75;;;1.10;;
9783;SDS011;4931;44.874;-1.092;2022-09-17T04:12:34;4.68;;;1.20;;
9783;SDS011;4931;44.874;-1.092;2022-09-17T04:17:19;3.67;;;1.27;;
9783;SDS011;4931;44.874;-1.092;2022-09-17T04:22:04;6.53;;;1.23;;
9783;SDS011;4931;44.874;-1.092;2022-09-17T04:26:52;2.15;;;1.25;;
9783;SDS011;4931;44.874;-1.092;2022-09-17T04:31:38;6.22;;;1.30;;
9783;SDS011;4931;44.874;-1.092;2022-09-17T04:36:23;6.60;;;1.52;;
9783;SDS011;4931;44.874;-1.092;2022-09-17T04:41:08;2.50;;;1.20;;
9783;SDS011;4931;44.874;-1.092;2022-09-17T04:45:56;5.38;;;1.45;;
9783;SDS011;4931;44.874;-1.092;2022-09-17T04:50:42;5.25;;;1.40;;
9783;SDS011;4931;44.874;-1.092;2022-09-17T04:55:27;4.53;;;1.33;;
9783;SDS011;4931;44.874;-1.092;2022-09-17T05:00:13;2.13;;;1.33;;
9783;SDS011;4931;44.874;-1.092;2022-09-17T05:05:01;3.42;;;1.42;;
9783;SDS011;4931;44.874;-1.092;2022-09-17T05:09:47;4.13;;;1.23;;
9783;SDS011;4931;44.874;-1.092;2022-09-17T05:14:32;4.13;;;1.50;;
9783;SDS011;4931;44.874;-1.092;2022-09-17T05:19:18;4.72;;;1.70;;
9783;SDS011;4931;44.874;-1.092;2022-09-17T05:24:06;8.20;;;1.70;;
9783;SDS011;4931;44.874;-1.092;2022-09-17T05:28:51;6.97;;;1.67;;
9783;SDS011;4931;44.874;-1.092;2022-09-17T05:33:36;3.60;;;1.50;;
9783;SDS011;4931;44.874;-1.092;2022-09-17T05:38:21;5.10;;;1.77;;
9783;SDS011;4931;44.874;-1.092;2022-09-17T05:43:09;4.22;;;1.50;;
9783;SDS011;4931;44.874;-1.092;2022-09-17T05:47:55;7.35;;;1.85;;
9783;SDS011;4931;44.874;-1.092;2022-09-17T05:52:41;2.15;;;1.40;;
9783;SDS011;4931;44.874;-1.092;2022-09-17T05:57:27;4.05;;;1.30;;
9783;SDS011;4931;44.874;-1.092;2022-09-17T06:02:15;4.40;;;1.50;;
9783;SDS011;4931;44.874;-1.092;2022-09-17T06:07:02;4.55;;;1.45;;
9783;SDS011;4931;44.874;-1.092;2022-09-17T06:11:48;4.25;;;1.77;;
9783;SDS011;4931;44.874;-1.092;2022-09-17T06:16:34;12.23;;;2.08;;
9783;SDS011;4931;44.874;-1.092;2022-09-17T06:21:22;7.07;;;1.70;;
9783;SDS011;4931;44.874;-1.092;2022-09-17T06:26:07;5.25;;;2.00;;
9783;SDS011;4931;44.874;-1.092;2022-09-17T06:30:53;7.72;;;1.70;;
9783;SDS011;4931;44.874;-1.092;2022-09-17T06:35:39;9.52;;;2.20;;
9783;SDS011;4931;44.874;-1.092;2022-09-17T06:40:28;8.95;;;2.00;;
9783;SDS011;4931;44.874;-1.092;2022-09-17T06:45:13;7.13;;;2.00;;
9783;SDS011;4931;44.874;-1.092;2022-09-17T06:49:58;3.85;;;1.60;;
9783;SDS011;4931;44.874;-1.092;2022-09-17T06:54:44;5.18;;;1.65;;
9783;SDS011;4931;44.874;-1.092;2022-09-17T06:59:31;6.15;;;2.15;;
9783;SDS011;4931;44.874;-1.092;2022-09-17T07:04:17;6.03;;;2.22;;
9783;SDS011;4931;44.874;-1.092;2022-09-17T07:09:02;7.18;;;2.22;;
9783;SDS011;4931;44.874;-1.092;2022-09-17T07:13:51;3.95;;;1.35;;
9783;SDS011;4931;44.874;-1.092;2022-09-17T07:18:39;3.85;;;1.73;;
9783;SDS011;4931;44.874;-1.092;2022-09-17T07:23:25;8.15;;;2.40;;
9783;SDS011;4931;44.874;-1.092;2022-09-17T07:28:12;14.48;;;5.57;;
9783;SDS011;4931;44.874;-1.092;2022-09-17T07:32:59;27.88;;;10.38;;
9783;SDS011;4931;44.874;-1.092;2022-09-17T07:37:48;28.25;;;11.40;;
9783;SDS011;4931;44.874;-1.092;2022-09-17T07:42:33;44.95;;;17.25;;
9783;SDS011;4931;44.874;-1.092;2022-09-17T07:47:18;55.47;;;20.38;;
9783;SDS011;4931;44.874;-1.092;2022-09-17T07:52:03;60.35;;;25.85;;
9783;SDS011;4931;44.874;-1.092;2022-09-17T07:56:51;53.88;;;21.20;;
9783;SDS011;4931;44.874;-1.092;2022-09-17T08:01:37;75.68;;;31.48;;
9783;SDS011;4931;44.874;-1.092;2022-09-17T08:06:23;87.57;;;36.55;;
9783;SDS011;4931;44.874;-1.092;2022-09-17T08:11:10;88.38;;;35.90;;
9783;SDS011;4931;44.874;-1.092;2022-09-17T08:16:20;113.78;;;46.42;;
9783;SDS011;4931;44.874;-1.092;2022-09-17T08:21:07;104.95;;;45.75;;
9783;SDS011;4931;44.874;-1.092;2022-09-17T08:25:55;127.80;;;48.95;;
9783;SDS011;4931;44.874;-1.092;2022-09-17T08:30:42;137.00;;;54.88;;
9783;SDS011;4931;44.874;-1.092;2022-09-17T08:35:30;115.82;;;47.83;;
9783;SDS011;4931;44.874;-1.092;2022-09-17T08:40:16;110.05;;;46.47;;
9783;SDS011;4931;44.874;-1.092;2022-09-17T08:45:08;126.55;;;54.88;;
9783;SDS011;4931;44.874;-1.092;2022-09-17T08:50:00;127.18;;;54.67;;
9783;SDS011;4931;44.874;-1.092;2022-09-17T08:54:52;121.70;;;53.78;;
9783;SDS011;4931;44.874;-1.092;2022-09-17T08:59:45;125.32;;;53.80;;
9783;SDS011;4931;44.874;-1.092;2022-09-17T09:04:51;121.88;;;57.17;;
9783;SDS011;4931;44.874;-1.092;2022-09-17T09:09:44;93.75;;;44.67;;
9783;SDS011;4931;44.874;-1.092;2022-09-17T09:14:35;93.70;;;41.58;;
9783;SDS011;4931;44.874;-1.092;2022-09-17T09:19:24;79.53;;;36.22;;
9783;SDS011;4931;44.874;-1.092;2022-09-17T09:24:15;64.32;;;28.75;;
9783;SDS011;4931;44.874;-1.092;2022-09-17T09:29:11;70.53;;;31.23;;
9783;SDS011;4931;44.874;-1.092;2022-09-17T09:34:09;66.95;;;31.48;;
9783;SDS011;4931;44.874;-1.092;2022-09-17T09:38:56;58.45;;;26.45;;
9783;SDS011;4931;44.874;-1.092;2022-09-17T09:43:46;57.25;;;25.10;;
9783;SDS011;4931;44.874;-1.092;2022-09-17T09:48:53;44.22;;;20.98;;
9783;SDS011;4931;44.874;-1.092;2022-09-17T09:53:56;34.55;;;16.50;;
9783;SDS011;4931;44.874;-1.092;2022-09-17T09:58:52;30.25;;;14.65;;
9783;SDS011;4931;44.874;-1.092;2022-09-17T10:03:38;32.38;;;15.73;;
9783;SDS011;4931;44.874;-1.092;2022-09-17T10:08:27;35.67;;;16.45;;
9783;SDS011;4931;44.874;-1.092;2022-09-17T10:13:16;41.38;;;18.73;;
9783;SDS011;4931;44.874;-1.092;2022-09-17T10:18:09;37.40;;;16.95;;
9783;SDS011;4931;44.874;-1.092;2022-09-17T10:22:56;34.25;;;16.58;;
9783;SDS011;4931;44.874;-1.092;2022-09-17T10:27:42;36.92;;;16.23;;
9783;SDS011;4931;44.874;-1.092;2022-09-17T10:32:32;26.73;;;12.82;;
9783;SDS011;4931;44.874;-1.092;2022-09-17T10:37:30;12.73;;;6.00;;
9783;SDS011;4931;44.874;-1.092;2022-09-17T10:42:18;16.42;;;7.60;;
9783;SDS011;4931;44.874;-1.092;2022-09-17T10:47:04;19.02;;;8.15;;
9783;SDS011;4931;44.874;-1.092;2022-09-17T10:51:54;26.88;;;12.55;;
9783;SDS011;4931;44.874;-1.092;2022-09-17T10:56:50;20.55;;;6.13;;
9783;SDS011;4931;44.874;-1.092;2022-09-17T11:01:42;11.25;;;5.38;;
9783;SDS011;4931;44.874;-1.092;2022-09-17T11:06:40;12.10;;;4.10;;
9783;SDS011;4931;44.874;-1.092;2022-09-17T11:11:41;17.45;;;6.68;;
9783;SDS011;4931;44.874;-1.092;2022-09-17T11:16:34;21.70;;;6.65;;
9783;SDS011;4931;44.874;-1.092;2022-09-17T11:21:38;18.92;;;9.02;;
9783;SDS011;4931;44.874;-1.092;2022-09-17T11:26:29;11.45;;;5.82;;
9783;SDS011;4931;44.874;-1.092;2022-09-17T11:31:23;17.83;;;8.30;;
9783;SDS011;4931;44.874;-1.092;2022-09-17T11:36:19;15.77;;;6.43;;
9783;SDS011;4931;44.874;-1.092;2022-09-17T11:41:09;24.40;;;9.85;;
9783;SDS011;4931;44.874;-1.092;2022-09-17T11:46:01;11.05;;;5.80;;
9783;SDS011;4931;44.874;-1.092;2022-09-17T11:50:56;11.73;;;5.40;;
9783;SDS011;4931;44.874;-1.092;2022-09-17T11:55:46;19.83;;;9.35;;
9783;SDS011;4931;44.874;-1.092;2022-09-17T12:00:37;16.63;;;8.05;;
9783;SDS011;4931;44.874;-1.092;2022-09-17T12:05:30;22.27;;;9.80;;
9783;SDS011;4931;44.874;-1.092;2022-09-17T12:15:27;19.02;;;8.82;;
9783;SDS011;4931;44.874;-1.092;2022-09-17T12:20:19;18.25;;;8.45;;
9783;SDS011;4931;44.874;-1.092;2022-09-17T12:25:11;21.20;;;7.30;;
9783;SDS011;4931;44.874;-1.092;2022-09-17T12:30:03;15.45;;;7.15;;
9783;SDS011;4931;44.874;-1.092;2022-09-17T12:34:55;16.92;;;7.72;;
9783;SDS011;4931;44.874;-1.092;2022-09-17T12:39:52;16.40;;;7.65;;
9783;SDS011;4931;44.874;-1.092;2022-09-17T12:50:13;21.90;;;9.20;;
9783;SDS011;4931;44.874;-1.092;2022-09-17T12:55:07;18.35;;;9.40;;
9783;SDS011;4931;44.874;-1.092;2022-09-17T13:00:07;14.48;;;5.97;;
9783;SDS011;4931;44.874;-1.092;2022-09-17T13:15:37;15.95;;;7.72;;
9783;SDS011;4931;44.874;-1.092;2022-09-17T13:20:37;18.98;;;8.60;;
9783;SDS011;4931;44.874;-1.092;2022-09-17T13:25:27;17.55;;;8.82;;
9783;SDS011;4931;44.874;-1.092;2022-09-17T13:30:12;16.90;;;9.05;;
9783;SDS011;4931;44.874;-1.092;2022-09-17T13:35:03;21.77;;;9.38;;
9783;SDS011;4931;44.874;-1.092;2022-09-17T13:40:27;21.40;;;9.70;;
9783;SDS011;4931;44.874;-1.092;2022-09-17T13:45:15;8.83;;;4.23;;
9783;SDS011;4931;44.874;-1.092;2022-09-17T13:50:05;5.38;;;2.13;;
9783;SDS011;4931;44.874;-1.092;2022-09-17T13:54:52;13.48;;;6.78;;
9783;SDS011;4931;44.874;-1.092;2022-09-17T13:59:40;10.25;;;5.03;;
9783;SDS011;4931;44.874;-1.092;2022-09-17T14:04:47;13.55;;;6.35;;
9783;SDS011;4931;44.874;-1.092;2022-09-17T14:09:45;12.60;;;5.50;;
9783;SDS011;4931;44.874;-1.092;2022-09-17T14:14:49;7.75;;;3.75;;
9783;SDS011;4931;44.874;-1.092;2022-09-17T14:19:39;13.20;;;5.57;;
9783;SDS011;4931;44.874;-1.092;2022-09-17T14:24:35;21.65;;;7.90;;
9783;SDS011;4931;44.874;-1.092;2022-09-17T14:29:32;16.87;;;7.33;;
9783;SDS011;4931;44.874;-1.092;2022-09-17T14:34:32;10.57;;;4.60;;
9783;SDS011;4931;44.874;-1.092;2022-09-17T14:39:20;17.17;;;7.82;;
9783;SDS011;4931;44.874;-1.092;2022-09-17T14:44:11;23.33;;;10.43;;
9783;SDS011;4931;44.874;-1.092;2022-09-17T14:49:12;14.07;;;6.63;;
9783;SDS011;4931;44.874;-1.092;2022-09-17T14:54:12;16.08;;;7.65;;
9783;SDS011;4931;44.874;-1.092;2022-09-17T14:59:00;12.35;;;4.22;;
9783;SDS011;4931;44.874;-1.092;2022-09-17T15:03:45;3.40;;;1.58;;
9783;SDS011;4931;44.874;-1.092;2022-09-17T15:08:31;23.52;;;8.57;;
9783;SDS011;4931;44.874;-1.092;2022-09-17T15:13:19;19.05;;;9.70;;
9783;SDS011;4931;44.874;-1.092;2022-09-17T15:18:11;16.42;;;6.22;;
9783;SDS011;4931;44.874;-1.092;2022-09-17T15:23:00;17.88;;;7.03;;
9783;SDS011;4931;44.874;-1.092;2022-09-17T15:27:54;13.32;;;3.70;;
9783;SDS011;4931;44.874;-1.092;2022-09-17T15:32:48;8.52;;;3.45;;
9783;SDS011;4931;44.874;-1.092;2022-09-17T15:37:35;5.10;;;1.70;;
9783;SDS011;4931;44.874;-1.092;2022-09-17T15:42:47;6.90;;;1.85;;
9783;SDS011;4931;44.874;-1.092;2022-09-17T15:47:35;6.93;;;2.38;;
9783;SDS011;4931;44.874;-1.092;2022-09-17T15:52:35;7.68;;;2.90;;
9783;SDS011;4931;44.874;-1.092;2022-09-17T15:57:20;7.50;;;2.33;;
9783;SDS011;4931;44.874;-1.092;2022-09-17T16:02:15;10.25;;;3.90;;
9783;SDS011;4931;44.874;-1.092;2022-09-17T16:07:25;10.95;;;3.90;;
9783;SDS011;4931;44.874;-1.092;2022-09-17T16:12:15;5.43;;;1.60;;
9783;SDS011;4931;44.874;-1.092;2022-09-17T16:17:13;4.45;;;1.42;;
9783;SDS011;4931;44.874;-1.092;2022-09-17T16:22:06;5.60;;;2.33;;
9783;SDS011;4931;44.874;-1.092;2022-09-17T16:26:51;4.05;;;1.40;;
9783;SDS011;4931;44.874;-1.092;2022-09-17T16:31:39;4.13;;;1.50;;
9783;SDS011;4931;44.874;-1.092;2022-09-17T16:36:25;4.70;;;1.08;;
9783;SDS011;4931;44.874;-1.092;2022-09-17T16:41:13;4.25;;;1.10;;
9783;SDS011;4931;44.874;-1.092;2022-09-17T16:45:58;7.05;;;1.60;;
9783;SDS011;4931;44.874;-1.092;2022-09-17T16:50:46;2.20;;;0.57;;
9783;SDS011;4931;44.874;-1.092;2022-09-17T16:55:31;4.53;;;1.00;;
9783;SDS011;4931;44.874;-1.092;2022-09-17T17:00:17;3.13;;;0.75;;
9783;SDS011;4931;44.874;-1.092;2022-09-17T17:05:03;3.30;;;0.60;;
9783;SDS011;4931;44.874;-1.092;2022-09-17T17:09:51;4.05;;;0.80;;
9783;SDS011;4931;44.874;-1.092;2022-09-17T17:14:37;8.48;;;1.92;;
9783;SDS011;4931;44.874;-1.092;2022-09-17T17:19:22;2.38;;;0.98;;
9783;SDS011;4931;44.874;-1.092;2022-09-17T17:24:07;4.00;;;1.20;;
9783;SDS011;4931;44.874;-1.092;2022-09-17T17:28:56;2.90;;;0.75;;
9783;SDS011;4931;44.874;-1.092;2022-09-17T17:33:41;2.20;;;0.70;;
9783;SDS011;4931;44.874;-1.092;2022-09-17T17:38:27;3.80;;;1.00;;
9783;SDS011;4931;44.874;-1.092;2022-09-17T17:43:12;4.20;;;0.90;;
9783;SDS011;4931;44.874;-1.092;2022-09-17T17:48:00;3.03;;;0.65;;
9783;SDS011;4931;44.874;-1.092;2022-09-17T17:52:46;5.68;;;0.80;;
9783;SDS011;4931;44.874;-1.092;2022-09-17T17:57:31;8.10;;;1.70;;
9783;SDS011;4931;44.874;-1.092;2022-09-17T18:02:16;5.18;;;1.73;;
9783;SDS011;4931;44.874;-1.092;2022-09-17T18:07:04;4.43;;;1.50;;
9783;SDS011;4931;44.874;-1.092;2022-09-17T18:11:49;4.88;;;0.73;;
9783;SDS011;4931;44.874;-1.092;2022-09-17T18:16:35;6.90;;;1.88;;
9783;SDS011;4931;44.874;-1.092;2022-09-17T18:21:21;8.10;;;2.90;;
9783;SDS011;4931;44.874;-1.092;2022-09-17T18:26:10;4.57;;;1.60;;
9783;SDS011;4931;44.874;-1.092;2022-09-17T18:30:56;1.92;;;1.00;;
9783;SDS011;4931;44.874;-1.092;2022-09-17T18:35:47;6.18;;;1.50;;
9783;SDS011;4931;44.874;-1.092;2022-09-17T18:40:37;6.47;;;1.67;;
9783;SDS011;4931;44.874;-1.092;2022-09-17T18:45:25;6.68;;;1.23;;
9783;SDS011;4931;44.874;-1.092;2022-09-17T18:50:10;5.05;;;1.50;;
9783;SDS011;4931;44.874;-1.092;2022-09-17T18:54:56;3.35;;;1.08;;
9783;SDS011;4931;44.874;-1.092;2022-09-17T18:59:42;3.75;;;1.23;;
9783;SDS011;4931;44.874;-1.092;2022-09-17T19:04:30;4.13;;;1.23;;
9783;SDS011;4931;44.874;-1.092;2022-09-17T19:09:15;2.42;;;1.30;;
9783;SDS011;4931;44.874;-1.092;2022-09-17T19:14:00;6.30;;;2.17;;
9783;SDS011;4931;44.874;-1.092;2022-09-17T19:18:45;3.13;;;1.40;;
9783;SDS011;4931;44.874;-1.092;2022-09-17T19:23:33;3.55;;;1.33;;
9783;SDS011;4931;44.874;-1.092;2022-09-17T19:28:18;3.85;;;1.33;;
9783;SDS011;4931;44.874;-1.092;2022-09-17T19:33:04;4.90;;;2.55;;
9783;SDS011;4931;44.874;-1.092;2022-09-17T19:37:49;4.28;;;1.10;;
9783;SDS011;4931;44.874;-1.092;2022-09-17T19:42:37;4.30;;;1.00;;
9783;SDS011;4931;44.874;-1.092;2022-09-17T19:47:22;4.80;;;1.17;;
9783;SDS011;4931;44.874;-1.092;2022-09-17T19:52:08;4.93;;;1.10;;
9783;SDS011;4931;44.874;-1.092;2022-09-17T19:56:53;4.18;;;1.20;;
9783;SDS011;4931;44.874;-1.092;2022-09-17T20:01:41;3.78;;;1.38;;
9783;SDS011;4931;44.874;-1.092;2022-09-17T20:06:31;3.65;;;1.23;;
9783;SDS011;4931;44.874;-1.092;2022-09-17T20:11:18;3.67;;;1.50;;
9783;SDS011;4931;44.874;-1.092;2022-09-17T20:16:05;4.28;;;1.30;;
9783;SDS011;4931;44.874;-1.092;2022-09-17T20:20:56;4.78;;;1.23;;
9783;SDS011;4931;44.874;-1.092;2022-09-17T20:25:41;4.28;;;1.25;;
9783;SDS011;4931;44.874;-1.092;2022-09-17T20:30:28;3.22;;;1.38;;
9783;SDS011;4931;44.874;-1.092;2022-09-17T20:35:13;4.65;;;1.30;;
9783;SDS011;4931;44.874;-1.092;2022-09-17T20:40:02;4.53;;;1.40;;
9783;SDS011;4931;44.874;-1.092;2022-09-17T20:44:48;4.57;;;1.55;;
9783;SDS011;4931;44.874;-1.092;2022-09-17T20:49:33;5.68;;;1.70;;
9783;SDS011;4931;44.874;-1.092;2022-09-17T20:54:18;4.55;;;2.00;;
9783;SDS011;4931;44.874;-1.092;2022-09-17T20:59:07;7.55;;;2.50;;
9783;SDS011;4931;44.874;-1.092;2022-09-17T21:03:59;13.70;;;3.33;;
9783;SDS011;4931;44.874;-1.092;2022-09-17T21:08:46;15.63;;;5.43;;
9783;SDS011;4931;44.874;-1.092;2022-09-17T21:13:34;23.42;;;7.85;;
9783;SDS011;4931;44.874;-1.092;2022-09-17T21:18:22;33.83;;;11.65;;
9783;SDS011;4931;44.874;-1.092;2022-09-17T21:23:07;41.55;;;14.55;;
9783;SDS011;4931;44.874;-1.092;2022-09-17T21:27:52;51.65;;;19.85;;
9783;SDS011;4931;44.874;-1.092;2022-09-17T21:32:37;67.05;;;23.70;;
9783;SDS011;4931;44.874;-1.092;2022-09-17T21:37:25;85.13;;;27.58;;
9783;SDS011;4931;44.874;-1.092;2022-09-17T21:42:10;79.22;;;31.08;;
9783;SDS011;4931;44.874;-1.092;2022-09-17T21:46:56;89.47;;;31.27;;
9783;SDS011;4931;44.874;-1.092;2022-09-17T21:51:41;89.55;;;34.88;;
9783;SDS011;4931;44.874;-1.092;2022-09-17T21:56:30;102.90;;;35.80;;
9783;SDS011;4931;44.874;-1.092;2022-09-17T22:01:15;107.63;;;37.58;;
9783;SDS011;4931;44.874;-1.092;2022-09-17T22:06:03;104.32;;;39.22;;
9783;SDS011;4931;44.874;-1.092;2022-09-17T22:10:49;110.80;;;39.92;;
9783;SDS011;4931;44.874;-1.092;2022-09-17T22:15:37;107.20;;;40.30;;
9783;SDS011;4931;44.874;-1.092;2022-09-17T22:20:22;107.78;;;40.58;;
9783;SDS011;4931;44.874;-1.092;2022-09-17T22:25:08;92.75;;;37.13;;
9783;SDS011;4931;44.874;-1.092;2022-09-17T22:29:54;105.07;;;38.40;;
9783;SDS011;4931;44.874;-1.092;2022-09-17T22:34:43;105.07;;;40.40;;
9783;SDS011;4931;44.874;-1.092;2022-09-17T22:39:29;103.15;;;38.38;;
9783;SDS011;4931;44.874;-1.092;2022-09-17T22:44:15;77.30;;;31.77;;
9783;SDS011;4931;44.874;-1.092;2022-09-17T22:49:02;67.57;;;26.52;;
9783;SDS011;4931;44.874;-1.092;2022-09-17T22:53:50;60.95;;;22.45;;
9783;SDS011;4931;44.874;-1.092;2022-09-17T22:58:35;61.97;;;22.92;;
9783;SDS011;4931;44.874;-1.092;2022-09-17T23:03:21;60.72;;;22.48;;
9783;SDS011;4931;44.874;-1.092;2022-09-17T23:08:09;67.32;;;24.55;;
9783;SDS011;4931;44.874;-1.092;2022-09-17T23:12:57;68.28;;;25.17;;
9783;SDS011;4931;44.874;-1.092;2022-09-17T23:17:45;73.40;;;25.23;;
9783;SDS011;4931;44.874;-1.092;2022-09-17T23:22:31;61.90;;;25.60;;
9783;SDS011;4931;44.874;-1.092;2022-09-17T23:27:16;71.65;;;26.70;;
9783;SDS011;4931;44.874;-1.092;2022-09-17T23:32:04;64.10;;;25.30;;
9783;SDS011;4931;44.874;-1.092;2022-09-17T23:36:49;67.75;;;26.42;;
9783;SDS011;4931;44.874;-1.092;2022-09-17T23:41:36;72.80;;;29.48;;
9783;SDS011;4931;44.874;-1.092;2022-09-17T23:46:24;80.05;;;32.10;;
9783;SDS011;4931;44.874;-1.092;2022-09-17T23:51:14;77.72;;;34.75;;
9783;SDS011;4931;44.874;-1.092;2022-09-17T23:55:59;68.28;;;27.13;;
